Grizzly Air Cargo 5110


PANC
Ted Stevens Anchorage International Airport
Anchorage, Alaska, US
PAJN
Juneau International Airport
Juneau, Alaska, US

Activity Log

Date Flight Route Aircraft Duration
12/11/2019 GRZ5110 NOEND JOH J501 YAK J541 SSR B722 1h 44m
09/27/2019 GRZ501 NOEND JOH J501 YAK J541 SSR B722 1h 17m
09/24/2019 GRZ531 NOEND JOH J501 YAK J541 SSR B738 1h 33m
08/28/2019 GRZ531 NOEND JOH J501 YAK J541 SSR B738 1h 14m
07/23/2019 GRZ531 NOEND JOH J501 YAK J541 SSR B738 1h 39m
06/30/2019 GRZ501 NOEND JOH J501 YAK J541 SSR B722 1h 43m
05/09/2019 GRZ501 JOH J501 YAK J541 SSR B722 1h 33m
03/19/2019 GRZ501 YESKA J501 YAK J541 SSR B722 1h 32m
03/07/2019 GRZ501 NOEND JOH J501 YAK J541 SSR B722 1h 32m

Route Details

Aircraft Information
Primary: Boeing 727-200F
Backup: Boeing 737-800BCF
Route Data
Distance: 496nm
Sched. Duration: 1h 50m
Avg. Duration: 1h 32m (-18m)
Times Flown: 9
Recm'd Route: NOEND JOH J501 YAK J541 SSR
Planned Altitude: 31,000ft
Origin Wx: PANC 310653Z 17004KT 10SM CLR M05/M14 A3004 RMK AO2 SLP174 T10501139 $
Dest. Wx: PAJN 310653Z 08016G24KT 10SM CLR M04/M18 A3010 RMK AO2 PK WND 09026/0615 SLP192 T10391183
Notes:

Financial History
Total Freight: 308,152lbs
Average Load: 34,239lbs/flt
Fuel Used: 100,832lbs
Avg. Fuel Used: 11,204lbs/flt
Fuel Expense: $125,816
Avg. Fuel Expense: $13,980
Avg. Fuel Cost: $1.25/lbs
Total Gross Income: $441,904
Pilot Pay: $1,501
Total Expenses: $48,194
Total Revenue: $265,275
Average Revenue: $49,100.42